Cordova, AK

6:52 AM AKST on December 05, 2016 (GMT -0900)
Middleton Island | | Change Station

Elev 46 ft 59.43 °N, 146.33 °W | Updated 16 minutes ago

Overcast
Overcast
36 °F
Feels Like 30 °F
N
7
Wind Variable Wind from SSW

Today
High -- | Low -- °F
--% Chance of Precip.
Yesterday
High -- | Low -- °F
Precip. -- in
Pressure 30.27 in
Visibility 10.0 miles
Clouds Overcast 3200 ft
Windchill 30 °F
Dew Point 23 °F
Humidity 60%
Rainfall 2.98 in
Snow Depth Not available.
9:24 AM 3:47 PM
Waxing Crescent, 32% visible
METAR PAMD 051536Z AUTO 20006KT 10SM OVC032 02/M05 A3027 RMK AO1
Pressure 30.27 in
Visibility 10.0 miles
Clouds Overcast 3200 ft
Windchill 30 °F
Dew Point 23 °F
Humidity 60%
Rainfall 2.98 in
Snow Depth Not available.
9:24 AM 3:47 PM
Waxing Crescent, 32% visible
METAR PAMD 051536Z AUTO 20006KT 10SM OVC032 02/M05 A3027 RMK AO1

10-Day Weather Forecast

Almanac

Astronomy

Dec. 05, 2016 Rise Set
Actual Time
Civil Twilight
Nautical Twilight
Astronomical Twilight
Moon
Length of Visible Light
Length of Day
Tomorrow will be .
, % of the Moon is Illuminated

Today's Extremes

State Highs State Lows

Community

WunderPhotos

Upload Photos

1,955,794 photos uploaded!

WunderBlog® & News

Nearby

Air Quality

  Air Quality AQ Index Pollutant
Not available.

Snow Depth

Station Depth Elevation

Earthquake Activity

City Distance Mag. Time & Date
Minimum magnitude displayed is 2.5.

Coastal Water Temperatures

Place Temperature

Stations

Nearby Weather Stations

Station Location Temp. Windchill Dew Point Humidity Wind Precip. Elev Updated Type
                   

Watches & Warnings

There are currently no watches in effect.